createdAt,value
2019-04-30T00:00:20.357Z,101985.62
2019-04-30T00:03:41.594Z,101986.09
2019-04-30T00:06:45.606Z,101992.25
2019-04-30T00:09:54.058Z,101985.67
2019-04-30T00:12:55.531Z,101984.79
2019-04-30T00:16:01.607Z,101991.39
2019-04-30T00:19:06.156Z,101987.86
2019-04-30T00:22:10.409Z,101992.72
2019-04-30T00:25:15.293Z,101987.45
2019-04-30T00:28:19.540Z,101992.73
2019-04-30T00:31:25.679Z,101990.09
2019-04-30T00:34:30.941Z,101997.98
2019-04-30T00:37:35.258Z,101997.55
2019-04-30T00:40:39.171Z,101993.14
2019-04-30T00:43:49.308Z,101984.84
2019-04-30T00:46:48.292Z,101980.44
2019-04-30T00:49:56.323Z,101980.42
2019-04-30T00:52:57.898Z,101978.70
2019-04-30T00:56:01.951Z,101975.18
2019-04-30T00:59:07.181Z,101974.73
2019-04-30T01:02:31.923Z,101967.29
2019-04-30T01:05:33.008Z,101967.30
2019-04-30T01:08:36.682Z,101961.12
2019-04-30T01:11:46.766Z,101957.62
2019-04-30T01:14:45.999Z,101958.52
2019-04-30T01:17:53.609Z,101957.18
2019-04-30T01:20:55.560Z,101956.74
2019-04-30T01:23:59.579Z,101969.03
2019-04-30T01:27:06.718Z,101972.95
2019-04-30T01:30:13.258Z,101966.39
2019-04-30T01:33:15.704Z,101966.84
2019-04-30T01:36:19.397Z,101964.61
2019-04-30T01:39:23.770Z,101961.14
2019-04-30T01:42:28.566Z,101957.17
2019-04-30T01:45:32.505Z,101943.59
2019-04-30T01:48:36.177Z,101955.86
2019-04-30T01:51:39.860Z,101959.80
2019-04-30T01:54:43.556Z,101955.83
2019-04-30T01:57:59.237Z,101954.95
2019-04-30T02:01:06.967Z,101963.72
2019-04-30T02:04:10.656Z,101958.00
2019-04-30T02:07:14.363Z,101959.77
2019-04-30T02:10:18.770Z,101955.83
2019-04-30T02:13:22.434Z,101954.03
2019-04-30T02:16:26.133Z,101952.75
2019-04-30T02:19:31.232Z,101959.27
2019-04-30T02:22:34.969Z,101959.30
2019-04-30T02:25:39.916Z,101949.20
2019-04-30T02:28:43.728Z,101956.19
2019-04-30T02:31:50.114Z,101955.34
2019-04-30T02:35:01.915Z,101966.27
2019-04-30T02:38:12.129Z,101954.86
2019-04-30T02:41:19.263Z,101955.73
2019-04-30T02:44:24.236Z,101951.84
2019-04-30T02:47:30.894Z,101944.81
2019-04-30T02:50:35.743Z,101944.77
2019-04-30T02:54:23.699Z,101942.56
2019-04-30T02:57:25.169Z,101943.88
2019-04-30T03:00:32.544Z,101934.66
2019-04-30T03:03:34.295Z,101933.34
2019-04-30T03:06:40.285Z,101932.93
2019-04-30T03:09:44.390Z,101929.02
2019-04-30T03:12:49.888Z,101928.07
2019-04-30T03:15:53.497Z,101931.11
2019-04-30T03:19:19.661Z,101929.41
2019-04-30T03:22:25.790Z,101926.32
2019-04-30T03:25:29.862Z,101921.48
2019-04-30T03:28:34.080Z,101918.00
2019-04-30T03:31:42.852Z,101915.35
2019-04-30T03:34:43.562Z,101917.98
2019-04-30T03:37:49.550Z,101910.48
2019-04-30T03:40:52.644Z,101912.70
2019-04-30T03:43:56.612Z,101913.61
2019-04-30T03:47:00.306Z,101917.52
2019-04-30T03:50:04.395Z,101916.20
2019-04-30T03:53:10.456Z,101917.93
2019-04-30T03:56:13.910Z,101912.68
2019-04-30T03:59:19.925Z,101917.11
2019-04-30T04:02:40.709Z,101917.11
2019-04-30T04:05:51.784Z,101911.91
2019-04-30T04:09:00.672Z,101919.32
2019-04-30T04:12:23.265Z,101927.58
2019-04-30T04:15:26.967Z,101929.82
2019-04-30T04:18:30.643Z,101928.92
2019-04-30T04:21:34.334Z,101921.50
2019-04-30T04:24:40.096Z,101926.34
2019-04-30T04:27:43.454Z,101922.80
2019-04-30T04:30:50.293Z,101917.16
2019-04-30T04:33:52.989Z,101925.48
2019-04-30T04:36:56.692Z,101920.66
2019-04-30T04:40:00.407Z,101919.81
2019-04-30T04:43:04.193Z,101921.62
2019-04-30T04:46:09.232Z,101931.25
2019-04-30T04:49:13.147Z,101929.05
2019-04-30T04:52:17.239Z,101927.78
2019-04-30T04:55:22.248Z,101928.21
2019-04-30T04:58:26.491Z,101925.14
2019-04-30T05:01:30.206Z,101930.00
2019-04-30T05:04:34.168Z,101934.83
2019-04-30T05:07:39.975Z,101933.50
2019-04-30T05:10:43.895Z,101930.00
2019-04-30T05:13:48.995Z,101930.89
2019-04-30T05:16:53.029Z,101930.89
2019-04-30T05:19:58.678Z,101926.95
2019-04-30T05:23:02.574Z,101919.02
2019-04-30T05:26:08.453Z,101918.99
2019-04-30T05:29:12.037Z,101924.21
2019-04-30T05:32:15.816Z,101924.64
2019-04-30T05:35:19.564Z,101926.33
2019-04-30T05:38:23.266Z,101931.99
2019-04-30T05:41:28.796Z,101926.70
2019-04-30T05:44:32.453Z,101928.37
2019-04-30T05:47:36.156Z,101926.45
2019-04-30T05:50:39.870Z,101925.97
2019-04-30T05:53:43.570Z,101924.45
2019-04-30T05:56:47.279Z,101925.17
2019-04-30T05:59:51.267Z,101923.55
2019-04-30T06:02:55.323Z,101924.27
2019-04-30T06:05:59.055Z,101923.64
2019-04-30T06:09:14.766Z,101924.49
2019-04-30T06:12:36.418Z,101929.48
2019-04-30T06:15:48.991Z,101926.31
2019-04-30T06:18:52.859Z,101927.07
2019-04-30T06:22:05.815Z,101919.53
2019-04-30T06:25:02.002Z,101925.27
2019-04-30T06:28:05.772Z,101923.23
2019-04-30T06:31:09.552Z,101923.01
2019-04-30T06:34:13.589Z,101923.23
2019-04-30T06:37:19.297Z,101928.92
2019-04-30T06:40:23.322Z,101925.03
2019-04-30T06:43:28.755Z,101920.37
2019-04-30T06:46:32.809Z,101916.98
2019-04-30T06:49:39.093Z,101918.79
2019-04-30T06:52:53.756Z,101919.17
2019-04-30T06:55:49.278Z,101916.67
2019-04-30T06:58:53.416Z,101911.51
2019-04-30T07:01:58.964Z,101911.77
2019-04-30T07:05:02.749Z,101909.73
2019-04-30T07:08:36.391Z,101898.50
2019-04-30T07:11:33.635Z,101900.61
2019-04-30T07:14:39.995Z,101894.34
2019-04-30T07:17:43.090Z,101901.02
2019-04-30T07:20:48.499Z,101900.92
2019-04-30T07:23:52.540Z,101895.42
2019-04-30T07:27:01.030Z,101897.42
2019-04-30T07:30:39.569Z,101901.41
2019-04-30T07:33:43.394Z,101889.72
2019-04-30T07:36:55.149Z,101889.09
2019-04-30T07:39:52.644Z,101888.53
2019-04-30T07:42:58.932Z,101890.30
2019-04-30T07:46:02.284Z,101886.27
2019-04-30T07:49:05.988Z,101875.70
2019-04-30T07:52:11.585Z,101885.13
2019-04-30T07:55:15.392Z,101885.81
2019-04-30T07:58:20.420Z,101881.89
2019-04-30T08:01:24.472Z,101886.56
2019-04-30T08:05:02.377Z,101879.32
2019-04-30T08:08:20.126Z,101884.02
2019-04-30T08:11:23.120Z,101878.37
2019-04-30T08:14:18.488Z,101882.48
2019-04-30T08:17:22.723Z,101875.17
2019-04-30T08:20:26.433Z,101874.53
2019-04-30T08:23:34.864Z,101875.05
2019-04-30T08:26:35.660Z,101870.44
2019-04-30T08:29:39.565Z,101872.39
2019-04-30T08:32:43.336Z,101872.70
2019-04-30T08:35:47.312Z,101872.73
2019-04-30T08:38:51.032Z,101872.67
2019-04-30T08:41:55.005Z,101868.57
2019-04-30T08:44:58.876Z,101869.20
2019-04-30T08:48:02.588Z,101872.33
2019-04-30T08:51:06.458Z,101874.31
2019-04-30T08:54:10.163Z,101876.71
2019-04-30T08:57:13.881Z,101870.53
2019-04-30T09:00:19.489Z,101867.45
2019-04-30T09:03:23.514Z,101866.72
2019-04-30T09:06:28.956Z,101862.88
2019-04-30T09:09:33.336Z,101867.28
2019-04-30T09:12:37.056Z,101861.70
2019-04-30T09:15:40.764Z,101855.98
2019-04-30T09:18:44.485Z,101856.83
2019-04-30T09:21:48.888Z,101854.11
2019-04-30T09:24:52.776Z,101855.41
2019-04-30T09:27:56.487Z,101850.37
2019-04-30T09:31:00.184Z,101850.20
2019-04-30T09:34:14.336Z,101848.54
2019-04-30T09:37:09.421Z,101852.14
2019-04-30T09:40:17.957Z,101855.89
2019-04-30T09:43:18.913Z,101848.94
2019-04-30T09:46:27.047Z,101839.83
2019-04-30T09:49:29.435Z,101839.66
2019-04-30T09:52:35.903Z,101845.39
2019-04-30T09:55:40.542Z,101835.95
2019-04-30T09:58:44.385Z,101833.83
2019-04-30T10:01:48.220Z,101828.89
2019-04-30T10:04:52.351Z,101827.44
2019-04-30T10:07:56.593Z,101831.66
2019-04-30T10:11:25.310Z,101823.61
2019-04-30T10:14:29.017Z,101813.70
2019-04-30T10:17:40.628Z,101813.64
2019-04-30T10:20:45.119Z,101808.34
2019-04-30T10:23:49.929Z,101811.40
2019-04-30T10:26:53.722Z,101808.17
2019-04-30T10:29:59.265Z,101794.49
2019-04-30T10:33:03.017Z,101807.00
2019-04-30T10:36:06.795Z,101794.69
2019-04-30T10:39:11.092Z,101795.55
2019-04-30T10:42:14.756Z,101790.35
2019-04-30T10:45:18.811Z,101782.28
2019-04-30T10:48:22.508Z,101784.61
2019-04-30T10:51:26.452Z,101783.06
2019-04-30T10:54:30.484Z,101789.09
2019-04-30T10:57:34.199Z,101779.81
2019-04-30T11:00:40.232Z,101784.00
2019-04-30T11:03:43.914Z,101780.97
2019-04-30T11:06:47.767Z,101785.20
2019-04-30T11:09:51.867Z,101778.47
2019-04-30T11:12:55.551Z,101774.27
2019-04-30T11:16:11.877Z,101773.21
2019-04-30T11:19:05.069Z,101775.47
2019-04-30T11:22:09.083Z,101776.00
2019-04-30T11:25:13.394Z,101765.46
2019-04-30T11:28:17.805Z,101765.33
2019-04-30T11:31:46.490Z,101770.19
2019-04-30T11:34:50.406Z,101757.08
2019-04-30T11:37:54.186Z,101755.70
2019-04-30T11:40:59.143Z,101748.64
2019-04-30T11:44:02.839Z,101748.78
2019-04-30T11:47:29.124Z,101743.34
2019-04-30T11:50:33.153Z,101742.42
2019-04-30T11:53:38.920Z,101743.06
2019-04-30T11:56:42.426Z,101728.00
2019-04-30T11:59:46.598Z,101726.80
2019-04-30T12:02:52.807Z,101730.36
2019-04-30T12:05:55.766Z,101718.67
2019-04-30T12:09:09.683Z,101715.95
2019-04-30T12:12:13.383Z,101707.63
2019-04-30T12:15:19.101Z,101711.44
2019-04-30T12:18:22.904Z,101712.39
2019-04-30T12:21:26.870Z,101708.72
2019-04-30T12:24:30.577Z,101709.95
2019-04-30T12:27:34.647Z,101704.45
2019-04-30T12:30:39.130Z,101700.50
2019-04-30T12:33:42.964Z,101691.01
2019-04-30T12:36:46.640Z,101691.05
2019-04-30T12:39:50.335Z,101697.92
2019-04-30T12:42:54.028Z,101691.47
2019-04-30T12:46:04.895Z,101691.95
2019-04-30T12:49:11.454Z,101692.16
2019-04-30T12:52:19.970Z,101687.85
2019-04-30T12:55:41.215Z,101681.06
2019-04-30T12:58:44.914Z,101676.77
2019-04-30T13:01:49.552Z,101686.91
2019-04-30T13:04:53.288Z,101676.89
2019-04-30T13:07:59.915Z,101678.99
2019-04-30T13:11:03.355Z,101671.44
2019-04-30T13:14:10.111Z,101665.20
2019-04-30T13:17:12.855Z,101669.28
2019-04-30T13:20:20.850Z,101668.88
2019-04-30T13:23:22.545Z,101662.46
2019-04-30T13:26:26.249Z,101656.16
2019-04-30T13:29:35.106Z,101660.94
2019-04-30T13:32:45.462Z,101653.22
2019-04-30T13:35:49.239Z,101647.66
2019-04-30T13:39:01.923Z,101648.66
2019-04-30T13:42:17.667Z,101652.41
2019-04-30T13:45:15.531Z,101654.85
2019-04-30T13:48:19.907Z,101654.58
2019-04-30T13:51:23.608Z,101641.44
2019-04-30T13:54:27.324Z,101645.78
2019-04-30T13:57:31.020Z,101636.46
2019-04-30T14:00:34.793Z,101641.19
2019-04-30T14:03:44.756Z,101640.43
2019-04-30T14:07:06.361Z,101636.86
2019-04-30T14:10:10.488Z,101628.06
2019-04-30T14:13:14.299Z,101626.47
2019-04-30T14:16:18.073Z,101624.54
2019-04-30T14:19:21.861Z,101621.86
2019-04-30T14:22:25.561Z,101613.28
2019-04-30T14:25:29.445Z,101614.13
2019-04-30T14:28:33.507Z,101617.06
2019-04-30T14:31:38.810Z,101616.23
2019-04-30T14:34:43.109Z,101613.02
2019-04-30T14:37:46.970Z,101617.87
2019-04-30T14:40:51.665Z,101610.16
2019-04-30T14:44:02.160Z,101610.28
2019-04-30T14:47:14.218Z,101617.47
2019-04-30T14:50:19.568Z,101602.23
2019-04-30T14:53:32.592Z,101605.41
2019-04-30T14:56:41.418Z,101609.73
2019-04-30T15:00:06.031Z,101615.44
2019-04-30T15:03:11.670Z,101609.92
2019-04-30T15:06:15.460Z,101614.33
2019-04-30T15:09:20.041Z,101615.76
2019-04-30T15:12:23.820Z,101616.20
2019-04-30T15:15:29.236Z,101620.08
2019-04-30T15:18:33.283Z,101616.06
2019-04-30T15:21:36.999Z,101616.44
2019-04-30T15:24:40.788Z,101617.88
2019-04-30T15:27:47.642Z,101614.15
2019-04-30T15:30:50.719Z,101618.12
2019-04-30T15:34:03.063Z,101616.78
2019-04-30T15:37:18.518Z,101615.33
2019-04-30T15:40:11.828Z,101618.98
2019-04-30T15:43:15.535Z,101614.09
2019-04-30T15:46:19.314Z,101616.30
2019-04-30T15:49:23.068Z,101615.28
2019-04-30T15:52:28.797Z,101618.83
2019-04-30T15:55:32.257Z,101611.45
2019-04-30T15:58:38.899Z,101610.88
2019-04-30T16:01:43.760Z,101605.70
2019-04-30T16:05:06.493Z,101603.42
2019-04-30T16:08:41.760Z,101601.88
2019-04-30T16:11:54.124Z,101595.36
2019-04-30T16:14:57.824Z,101603.09
2019-04-30T16:18:02.119Z,101606.25
2019-04-30T16:21:05.819Z,101602.86
2019-04-30T16:24:09.772Z,101601.80
2019-04-30T16:27:13.471Z,101601.11
2019-04-30T16:30:19.553Z,101600.56
2019-04-30T16:33:23.416Z,101595.56
2019-04-30T16:36:29.036Z,101594.86
2019-04-30T16:39:32.825Z,101594.28
2019-04-30T16:42:38.918Z,101590.33
2019-04-30T16:45:42.605Z,101588.55
2019-04-30T16:48:46.635Z,101592.03
2019-04-30T16:51:50.468Z,101604.89
2019-04-30T16:54:54.181Z,101594.31
2019-04-30T16:57:58.548Z,101595.23
2019-04-30T17:01:04.053Z,101594.47
2019-04-30T17:04:16.180Z,101589.72
2019-04-30T17:07:30.895Z,101590.56
2019-04-30T17:10:41.051Z,101590.81
2019-04-30T17:13:51.733Z,101589.06
2019-04-30T17:16:55.432Z,101596.58
2019-04-30T17:19:59.141Z,101589.69
2019-04-30T17:23:02.845Z,101587.87
2019-04-30T17:26:06.881Z,101587.64
2019-04-30T17:29:10.589Z,101585.14
2019-04-30T17:32:14.292Z,101589.17
2019-04-30T17:35:19.033Z,101591.81
2019-04-30T17:38:22.928Z,101588.45
2019-04-30T17:41:26.637Z,101586.96
2019-04-30T17:44:30.350Z,101585.09
2019-04-30T17:47:34.310Z,101585.09
2019-04-30T17:50:39.619Z,101589.66
2019-04-30T17:54:01.368Z,101589.61
2019-04-30T17:57:05.413Z,101590.14
2019-04-30T18:00:18.925Z,101590.14
2019-04-30T18:03:18.959Z,101589.12
2019-04-30T18:06:22.873Z,101583.23
2019-04-30T18:09:26.677Z,101588.22
2019-04-30T18:12:30.805Z,101589.34
2019-04-30T18:15:34.525Z,101588.79
2019-04-30T18:18:51.214Z,101586.59
2019-04-30T18:21:59.678Z,101589.57
2019-04-30T18:25:20.720Z,101597.59
2019-04-30T18:28:24.705Z,101588.57
2019-04-30T18:31:29.811Z,101594.95
2019-04-30T18:34:33.615Z,101590.30
2019-04-30T18:37:38.708Z,101594.09
2019-04-30T18:40:42.517Z,101595.38
2019-04-30T18:43:48.736Z,101594.98
2019-04-30T18:46:52.758Z,101602.95
2019-04-30T18:49:56.465Z,101601.39
2019-04-30T18:53:02.708Z,101601.61
2019-04-30T18:56:09.960Z,101603.56
2019-04-30T18:59:11.945Z,101604.78
2019-04-30T19:02:15.715Z,101602.14
2019-04-30T19:05:25.730Z,101604.67
2019-04-30T19:08:35.040Z,101608.29
2019-04-30T19:11:54.357Z,101604.08
2019-04-30T19:15:08.149Z,101606.41
2019-04-30T19:18:25.922Z,101606.50
2019-04-30T19:21:30.108Z,101612.91
2019-04-30T19:24:33.808Z,101615.30
2019-04-30T19:27:37.514Z,101623.14
2019-04-30T19:30:41.374Z,101622.78
2019-04-30T19:33:45.391Z,101619.70
2019-04-30T19:36:49.351Z,101620.31
2019-04-30T19:39:53.132Z,101615.86
2019-04-30T19:42:56.845Z,101618.70
2019-04-30T19:46:00.835Z,101612.24
2019-04-30T19:49:04.718Z,101610.85
2019-04-30T19:52:11.125Z,101605.73
2019-04-30T19:55:13.937Z,101606.59
2019-04-30T19:58:27.753Z,101612.02
2019-04-30T20:01:23.070Z,101619.61
2019-04-30T20:04:33.048Z,101619.30
2019-04-30T20:07:32.217Z,101619.44
2019-04-30T20:10:35.942Z,101617.08
2019-04-30T20:13:40.524Z,101625.64
2019-04-30T20:16:44.211Z,101622.14
2019-04-30T20:19:48.926Z,101619.54
2019-04-30T20:22:52.981Z,101621.89
2019-04-30T20:25:56.678Z,101619.51
2019-04-30T20:29:00.715Z,101618.48
2019-04-30T20:32:04.483Z,101622.01
2019-04-30T20:35:09.756Z,101618.20
2019-04-30T20:38:22.115Z,101616.45
2019-04-30T20:41:28.611Z,101619.22
2019-04-30T20:44:32.396Z,101619.83
2019-04-30T20:47:36.097Z,101620.34
2019-04-30T20:50:39.809Z,101611.72
2019-04-30T20:53:43.516Z,101610.80
2019-04-30T20:56:48.347Z,101606.89
2019-04-30T20:59:52.902Z,101605.22
2019-04-30T21:02:56.685Z,101604.81
2019-04-30T21:06:00.692Z,101595.85
2019-04-30T21:09:06.150Z,101600.21
2019-04-30T21:12:09.845Z,101592.53
2019-04-30T21:15:13.933Z,101599.71
2019-04-30T21:18:19.387Z,101604.09
2019-04-30T21:21:23.109Z,101606.16
2019-04-30T21:24:26.819Z,101607.97
2019-04-30T21:27:30.632Z,101611.41
2019-04-30T21:30:34.407Z,101607.33
2019-04-30T21:33:43.124Z,101607.53
2019-04-30T21:36:46.860Z,101609.95
2019-04-30T21:39:50.587Z,101604.85
2019-04-30T21:42:54.284Z,101604.13
2019-04-30T21:45:59.411Z,101598.24
2019-04-30T21:49:03.189Z,101594.03
2019-04-30T21:52:06.887Z,101595.81
2019-04-30T21:55:12.499Z,101593.01
2019-04-30T21:58:16.285Z,101592.34
2019-04-30T22:01:24.708Z,101596.97
2019-04-30T22:04:28.513Z,101589.30
2019-04-30T22:07:32.308Z,101586.60
2019-04-30T22:10:36.340Z,101582.59
2019-04-30T22:13:43.106Z,101586.76
2019-04-30T22:16:46.446Z,101583.38
2019-04-30T22:19:51.711Z,101581.92
2019-04-30T22:22:55.612Z,101577.09
2019-04-30T22:25:59.949Z,101585.78
2019-04-30T22:29:03.857Z,101580.25
2019-04-30T22:32:09.238Z,101581.57
2019-04-30T22:35:31.276Z,101581.63
2019-04-30T22:38:39.132Z,101572.97
2019-04-30T22:41:42.951Z,101576.74
2019-04-30T22:44:46.843Z,101573.17
2019-04-30T22:47:50.579Z,101567.44
2019-04-30T22:50:54.305Z,101570.55
2019-04-30T22:53:58.109Z,101568.17
2019-04-30T22:57:01.816Z,101570.19
2019-04-30T23:00:09.704Z,101571.49
2019-04-30T23:03:20.090Z,101561.64
2019-04-30T23:06:24.230Z,101562.13
2019-04-30T23:09:27.933Z,101560.90
2019-04-30T23:12:31.714Z,101563.41
2019-04-30T23:15:36.037Z,101557.74
2019-04-30T23:18:39.736Z,101551.52
2019-04-30T23:21:43.476Z,101542.00
2019-04-30T23:24:47.472Z,101546.66
2019-04-30T23:27:51.277Z,101541.10
2019-04-30T23:30:55.060Z,101545.20
2019-04-30T23:33:58.818Z,101538.46
2019-04-30T23:37:02.890Z,101538.58
2019-04-30T23:40:31.054Z,101533.72
2019-04-30T23:43:34.775Z,101528.42
2019-04-30T23:46:38.508Z,101525.89
2019-04-30T23:49:42.289Z,101529.05
2019-04-30T23:52:46.611Z,101521.20
2019-04-30T23:55:50.382Z,101526.33
2019-04-30T23:58:54.205Z,101518.45
